KTNU/TNU METAR and TAF weather

Enter ICAO airport designator
Station Type Date Time Source
KTNU METAR 2022/01/26 08:15 UTC NOAA

KTNU 260815Z AUTO 27003KT 10SM CLR M22/M23 A3050 RMK A01


Station Type Date Time Source
KTNU Decoded METAR 2022/01/26 08:15 UTC NOAA

Newton Municipal, IA, United States (KTNU) 41-41N 093-01W
Jan 26, 2022 - 03:15 AM EST / 2022.01.26 0815 UTC
Wind: from the W (270 degrees) at 3 MPH (3 KT):0
Visibility: 10 mile(s):0
Sky conditions: clear
Temperature: -7 F (-22 C)
Dew Point: -9 F (-23 C)
Relative Humidity: 91%
Pressure (altimeter): 30.5 in. Hg (1032 hPa)
ob: KTNU 260815Z AUTO 27003KT 10SM CLR M22/M23 A3050 RMK A01
cycle: 8

Station Type Date Time Source
KTNU TAF UTC NOAA

Error!

Example: see airport list